Time,TemperatureF,DewpointF,PressureIn,WindDirection,WindDirectionDegrees,WindSpeedMPH,WindSpeedGustMPH,Humidity,HourlyPrecipIn,Conditions,Clouds,dailyrainin,SoftwareType,DateUTC
2013-11-11 00:00:00,56.9,50.8,30.23,NNE,30,0.0,4.0,80,0.00,,,0.00,Wunderground v.1.15,2013-11-11 06:00:00,
2013-11-11 00:05:00,56.8,51.0,30.23,ENE,72,0.0,4.0,81,0.00,,,0.00,Wunderground v.1.15,2013-11-11 06:05:00,
2013-11-11 00:15:00,56.5,50.7,30.23,NNE,29,0.0,4.0,81,0.00,,,0.00,Wunderground v.1.15,2013-11-11 06:15:00,
2013-11-11 00:20:00,56.3,50.9,30.23,NNE,29,0.0,4.0,82,0.00,,,0.00,Wunderground v.1.15,2013-11-11 06:20:00,
2013-11-11 00:30:00,55.9,50.8,30.23,East,87,0.0,4.0,83,0.00,,,0.00,Wunderground v.1.15,2013-11-11 06:30:00,
2013-11-11 00:35:00,55.6,50.8,30.23,East,87,0.0,4.0,84,0.00,,,0.00,Wunderground v.1.15,2013-11-11 06:35:00,
2013-11-11 00:40:00,55.3,50.9,30.23,SE,125,0.0,4.0,85,0.00,,,0.00,Wunderground v.1.15,2013-11-11 06:40:00,
2013-11-11 00:45:00,55.1,51.0,30.23,East,96,0.0,4.0,86,0.00,,,0.00,Wunderground v.1.15,2013-11-11 06:45:00,
2013-11-11 00:50:00,54.7,50.9,30.23,East,96,0.0,4.0,87,0.00,,,0.00,Wunderground v.1.15,2013-11-11 06:50:00,
2013-11-11 00:55:00,54.4,50.9,30.23,East,96,0.0,4.0,88,0.00,,,0.00,Wunderground v.1.15,2013-11-11 06:55:00,
2013-11-11 01:05:00,54.2,50.7,30.22,East,96,0.0,4.0,88,0.00,,,0.00,Wunderground v.1.15,2013-11-11 07:05:00,
2013-11-11 01:10:00,54.1,50.9,30.22,East,96,0.0,4.0,89,0.00,,,0.00,Wunderground v.1.15,2013-11-11 07:10:00,
2013-11-11 01:15:00,53.7,50.8,30.22,East,96,0.0,4.0,90,0.00,,,0.00,Wunderground v.1.15,2013-11-11 07:15:00,
2013-11-11 01:20:00,53.3,50.7,30.22,East,96,0.0,4.0,91,0.00,,,0.00,Wunderground v.1.15,2013-11-11 07:20:00,
2013-11-11 01:25:00,52.9,50.6,30.22,East,96,0.0,4.0,92,0.00,,,0.00,Wunderground v.1.15,2013-11-11 07:25:00,
2013-11-11 01:35:00,52.4,50.4,30.22,East,96,0.0,4.0,93,0.00,,,0.00,Wunderground v.1.15,2013-11-11 07:35:00,
2013-11-11 01:40:00,52.2,50.2,30.22,East,96,0.0,4.0,93,0.00,,,0.00,Wunderground v.1.15,2013-11-11 07:40:00,
2013-11-11 01:45:00,52.2,50.2,30.22,East,96,0.0,4.0,93,0.00,,,0.00,Wunderground v.1.15,2013-11-11 07:45:00,
2013-11-11 01:50:00,52.3,50.3,30.22,East,96,0.0,4.0,93,0.00,,,0.00,Wunderground v.1.15,2013-11-11 07:50:00,
2013-11-11 01:55:00,52.4,50.1,30.22,East,87,0.0,4.0,92,0.00,,,0.00,Wunderground v.1.15,2013-11-11 07:55:00,
2013-11-11 02:00:00,52.5,50.2,30.22,ENE,68,0.0,4.0,92,0.00,,,0.00,Wunderground v.1.15,2013-11-11 08:00:00,
2013-11-11 02:05:00,52.8,50.2,30.23,North,5,0.0,4.0,91,0.00,,,0.00,Wunderground v.1.15,2013-11-11 08:05:00,
2013-11-11 02:10:00,52.8,50.2,30.22,North,8,0.0,4.0,91,0.00,,,0.00,Wunderground v.1.15,2013-11-11 08:10:00,
2013-11-11 02:15:00,52.8,50.2,30.22,North,7,0.0,4.0,91,0.00,,,0.00,Wunderground v.1.15,2013-11-11 08:15:00,
2013-11-11 02:20:00,52.7,50.1,30.22,North,8,0.0,4.0,91,0.00,,,0.00,Wunderground v.1.15,2013-11-11 08:20:00,
2013-11-11 02:25:00,52.7,50.1,30.22,ENE,76,0.0,4.0,91,0.00,,,0.00,Wunderground v.1.15,2013-11-11 08:25:00,
2013-11-11 02:30:00,52.7,50.1,30.22,NNE,32,0.0,4.0,91,0.00,,,0.00,Wunderground v.1.15,2013-11-11 08:30:00,
2013-11-11 02:40:00,52.6,50.3,30.22,North,360,0.0,4.0,92,0.00,,,0.00,Wunderground v.1.15,2013-11-11 08:40:00,
2013-11-11 02:45:00,52.5,50.2,30.22,North,359,0.0,4.0,92,0.00,,,0.00,Wunderground v.1.15,2013-11-11 08:45:00,
2013-11-11 02:50:00,52.1,50.1,30.22,ESE,120,0.0,4.0,93,0.00,,,0.00,Wunderground v.1.15,2013-11-11 08:50:00,
2013-11-11 02:55:00,51.6,49.6,30.22,ESE,120,0.0,4.0,93,0.00,,,0.00,Wunderground v.1.15,2013-11-11 08:55:00,
2013-11-11 03:00:00,51.3,49.6,30.22,ESE,120,0.0,4.0,94,0.00,,,0.00,Wunderground v.1.15,2013-11-11 09:00:00,
2013-11-11 03:10:00,51.0,49.3,30.22,ESE,120,0.0,4.0,94,0.00,,,0.00,Wunderground v.1.15,2013-11-11 09:10:00,
2013-11-11 03:15:00,50.9,49.5,30.22,ESE,120,0.0,4.0,95,0.00,,,0.00,Wunderground v.1.15,2013-11-11 09:15:00,
2013-11-11 03:20:00,50.9,49.5,30.21,ESE,120,0.0,4.0,95,0.00,,,0.00,Wunderground v.1.15,2013-11-11 09:20:00,
2013-11-11 03:25:00,50.8,49.4,30.21,ESE,120,0.0,4.0,95,0.00,,,0.00,Wunderground v.1.15,2013-11-11 09:25:00,
2013-11-11 03:30:00,50.7,49.3,30.21,ESE,120,0.0,4.0,95,0.00,,,0.00,Wunderground v.1.15,2013-11-11 09:30:00,
2013-11-11 03:35:00,50.6,49.2,30.21,ESE,120,0.0,4.0,95,0.00,,,0.00,Wunderground v.1.15,2013-11-11 09:35:00,
2013-11-11 03:45:00,50.4,49.3,30.21,ESE,120,0.0,4.0,96,0.00,,,0.00,Wunderground v.1.15,2013-11-11 09:45:00,
2013-11-11 03:50:00,50.5,49.4,30.21,ESE,120,0.0,4.0,96,0.00,,,0.00,Wunderground v.1.15,2013-11-11 09:50:00,
2013-11-11 03:55:00,50.5,49.4,30.21,ESE,120,0.0,4.0,96,0.00,,,0.00,Wunderground v.1.15,2013-11-11 09:55:00,
2013-11-11 04:00:00,50.4,49.3,30.21,ESE,120,0.0,4.0,96,0.00,,,0.00,Wunderground v.1.15,2013-11-11 10:00:00,
2013-11-11 04:05:00,50.3,49.2,30.21,ESE,120,0.0,4.0,96,0.00,,,0.00,Wunderground v.1.15,2013-11-11 10:05:00,
2013-11-11 04:15:00,50.1,49.0,30.21,ESE,120,0.0,4.0,96,0.00,,,0.00,Wunderground v.1.15,2013-11-11 10:15:00,
2013-11-11 04:20:00,49.8,48.7,30.21,ESE,120,0.0,4.0,96,0.00,,,0.00,Wunderground v.1.15,2013-11-11 10:20:00,
2013-11-11 04:25:00,49.5,48.4,30.21,ESE,120,0.0,4.0,96,0.00,,,0.00,Wunderground v.1.15,2013-11-11 10:25:00,
2013-11-11 04:30:00,49.6,48.8,30.21,ESE,120,0.0,4.0,97,0.00,,,0.00,Wunderground v.1.15,2013-11-11 10:30:00,
2013-11-11 04:35:00,49.7,48.9,30.21,ESE,120,0.0,4.0,97,0.00,,,0.00,Wunderground v.1.15,2013-11-11 10:35:00,
2013-11-11 04:40:00,49.6,48.8,30.21,ESE,120,0.0,4.0,97,0.00,,,0.00,Wunderground v.1.15,2013-11-11 10:40:00,
2013-11-11 04:50:00,49.2,48.4,30.21,ESE,120,0.0,4.0,97,0.00,,,0.00,Wunderground v.1.15,2013-11-11 10:50:00,
2013-11-11 04:55:00,49.3,48.5,30.21,ESE,120,0.0,4.0,97,0.00,,,0.00,Wunderground v.1.15,2013-11-11 10:55:00,
2013-11-11 05:00:00,49.1,48.3,30.21,ESE,120,0.0,4.0,97,0.00,,,0.00,Wunderground v.1.15,2013-11-11 11:00:00,
2013-11-11 05:05:00,49.2,48.4,30.21,ESE,120,0.0,4.0,97,0.00,,,0.00,Wunderground v.1.15,2013-11-11 11:05:00,
2013-11-11 05:10:00,49.2,48.4,30.21,ESE,120,0.0,4.0,97,0.00,,,0.00,Wunderground v.1.15,2013-11-11 11:10:00,
2013-11-11 05:20:00,49.3,48.5,30.21,East,86,0.0,4.0,97,0.00,,,0.00,Wunderground v.1.15,2013-11-11 11:20:00,
2013-11-11 05:25:00,49.2,48.7,30.21,East,86,0.0,4.0,98,0.00,,,0.00,Wunderground v.1.15,2013-11-11 11:25:00,
2013-11-11 05:30:00,49.3,48.8,30.21,East,86,0.0,4.0,98,0.00,,,0.00,Wunderground v.1.15,2013-11-11 11:30:00,
2013-11-11 05:35:00,49.1,48.3,30.21,East,86,0.0,4.0,97,0.00,,,0.00,Wunderground v.1.15,2013-11-11 11:35:00,
2013-11-11 05:40:00,49.0,48.2,30.21,East,86,0.0,4.0,97,0.00,,,0.00,Wunderground v.1.15,2013-11-11 11:40:00,
2013-11-11 05:45:00,49.1,48.6,30.21,East,86,0.0,4.0,98,0.00,,,0.00,Wunderground v.1.15,2013-11-11 11:45:00,
2013-11-11 05:50:00,49.2,48.7,30.22,East,86,0.0,4.0,98,0.00,,,0.00,Wunderground v.1.15,2013-11-11 11:50:00,
2013-11-11 05:55:00,49.0,48.5,30.22,East,86,0.0,4.0,98,0.00,,,0.00,Wunderground v.1.15,2013-11-11 11:55:00,
2013-11-11 06:00:00,48.9,48.4,30.22,East,86,0.0,4.0,98,0.00,,,0.00,Wunderground v.1.15,2013-11-11 12:00:00,
2013-11-11 06:05:00,48.8,48.3,30.22,East,86,0.0,4.0,98,0.00,,,0.00,Wunderground v.1.15,2013-11-11 12:05:00,
2013-11-11 06:10:00,48.7,48.2,30.22,East,86,0.0,4.0,98,0.00,,,0.00,Wunderground v.1.15,2013-11-11 12:10:00,
2013-11-11 06:15:00,48.5,48.0,30.22,East,86,0.0,4.0,98,0.00,,,0.00,Wunderground v.1.15,2013-11-11 12:15:00,
2013-11-11 06:25:00,48.3,47.8,30.22,East,86,0.0,4.0,98,0.00,,,0.00,Wunderground v.1.15,2013-11-11 12:25:00,
2013-11-11 06:30:00,48.3,47.8,30.22,ESE,105,0.0,4.0,98,0.00,,,0.00,Wunderground v.1.15,2013-11-11 12:30:00,
2013-11-11 06:35:00,48.4,47.9,30.22,ESE,104,0.0,4.0,98,0.00,,,0.00,Wunderground v.1.15,2013-11-11 12:35:00,
2013-11-11 06:40:00,48.6,48.1,30.22,ESE,105,0.0,4.0,98,0.00,,,0.00,Wunderground v.1.15,2013-11-11 12:40:00,
2013-11-11 06:45:00,49.0,48.5,30.23,East,89,0.0,4.0,98,0.00,,,0.00,Wunderground v.1.15,2013-11-11 12:45:00,
2013-11-11 06:55:00,50.1,49.6,30.23,East,89,0.0,4.0,98,0.00,,,0.00,Wunderground v.1.15,2013-11-11 12:55:00,
2013-11-11 07:00:00,50.7,50.2,30.23,East,88,0.0,4.0,98,0.00,,,0.00,Wunderground v.1.15,2013-11-11 13:00:00,
2013-11-11 07:05:00,51.2,50.7,30.23,East,89,0.0,4.0,98,0.00,,,0.00,Wunderground v.1.15,2013-11-11 13:05:00,
2013-11-11 07:10:00,51.7,51.2,30.23,ENE,68,0.0,4.0,98,0.00,,,0.00,Wunderground v.1.15,2013-11-11 13:10:00,
2013-11-11 07:15:00,52.2,51.7,30.24,ENE,68,0.0,4.0,98,0.00,,,0.00,Wunderground v.1.15,2013-11-11 13:15:00,
2013-11-11 07:20:00,52.7,52.2,30.24,ENE,68,0.0,4.0,98,0.00,,,0.00,Wunderground v.1.15,2013-11-11 13:20:00,
2013-11-11 07:30:00,53.2,51.8,30.24,NE,51,0.0,4.0,95,0.00,,,0.00,Wunderground v.1.15,2013-11-11 13:30:00,
2013-11-11 07:35:00,53.7,52.3,30.24,NE,51,0.0,4.0,95,0.00,,,0.00,Wunderground v.1.15,2013-11-11 13:35:00,
2013-11-11 07:40:00,54.6,52.3,30.24,ESE,106,0.0,4.0,92,0.00,,,0.00,Wunderground v.1.15,2013-11-11 13:40:00,
2013-11-11 07:45:00,55.1,52.2,30.24,NE,44,0.0,4.0,90,0.00,,,0.00,Wunderground v.1.15,2013-11-11 13:45:00,
2013-11-11 07:50:00,55.3,51.8,30.24,East,87,1.0,4.0,88,0.00,,,0.00,Wunderground v.1.15,2013-11-11 13:50:00,
2013-11-11 08:00:00,55.4,51.6,30.25,NE,54,2.0,2.0,87,0.00,,,0.00,Wunderground v.1.15,2013-11-11 14:00:00,
2013-11-11 08:05:00,55.7,51.9,30.25,NE,47,2.0,4.0,87,0.00,,,0.00,Wunderground v.1.15,2013-11-11 14:05:00,
2013-11-11 08:10:00,56.4,52.3,30.25,ENE,61,1.0,4.0,86,0.00,,,0.00,Wunderground v.1.15,2013-11-11 14:10:00,
2013-11-11 08:15:00,56.9,52.4,30.25,ENE,63,1.0,4.0,85,0.00,,,0.00,Wunderground v.1.15,2013-11-11 14:15:00,
2013-11-11 08:20:00,57.4,52.6,30.25,ESE,117,2.0,2.0,84,0.00,,,0.00,Wunderground v.1.15,2013-11-11 14:20:00,
2013-11-11 08:25:00,57.9,53.1,30.25,East,93,1.0,4.0,84,0.00,,,0.00,Wunderground v.1.15,2013-11-11 14:25:00,
2013-11-11 08:35:00,58.5,52.7,30.25,ESE,122,2.0,4.0,81,0.00,,,0.00,Wunderground v.1.15,2013-11-11 14:35:00,
2013-11-11 08:40:00,58.7,52.9,30.25,ENE,68,3.0,4.0,81,0.00,,,0.00,Wunderground v.1.15,2013-11-11 14:40:00,
2013-11-11 08:45:00,59.2,53.4,30.25,ENE,71,2.0,4.0,81,0.00,,,0.00,Wunderground v.1.15,2013-11-11 14:45:00,
2013-11-11 08:50:00,59.4,52.5,30.25,East,83,2.0,4.0,78,0.00,,,0.00,Wunderground v.1.15,2013-11-11 14:50:00,
2013-11-11 08:55:00,59.6,52.7,30.25,East,99,3.0,4.0,78,0.00,,,0.00,Wunderground v.1.15,2013-11-11 14:55:00,
2013-11-11 09:05:00,60.5,52.9,30.25,ESE,107,3.0,4.0,76,0.00,,,0.00,Wunderground v.1.15,2013-11-11 15:05:00,
2013-11-11 09:10:00,61.0,53.0,30.26,East,89,3.0,3.0,75,0.00,,,0.00,Wunderground v.1.15,2013-11-11 15:10:00,
2013-11-11 09:15:00,61.4,53.4,30.26,ENE,78,3.0,4.0,75,0.00,,,0.00,Wunderground v.1.15,2013-11-11 15:15:00,
2013-11-11 09:20:00,61.8,53.4,30.26,ENE,78,3.0,4.0,74,0.00,,,0.00,Wunderground v.1.15,2013-11-11 15:20:00,
2013-11-11 09:25:00,62.4,53.6,30.26,SE,142,3.0,4.0,73,0.00,,,0.00,Wunderground v.1.15,2013-11-11 15:25:00,
2013-11-11 09:30:00,63.0,53.1,30.26,ENE,76,3.0,3.0,70,0.00,,,0.00,Wunderground v.1.15,2013-11-11 15:30:00,
2013-11-11 09:40:00,63.8,53.8,30.26,ESE,109,3.0,4.0,70,0.00,,,0.00,Wunderground v.1.15,2013-11-11 15:40:00,
2013-11-11 09:45:00,64.1,52.9,30.26,East,92,3.0,4.0,67,0.00,,,0.00,Wunderground v.1.15,2013-11-11 15:45:00,
2013-11-11 09:50:00,64.2,53.8,30.26,ESE,105,3.0,4.0,69,0.00,,,0.00,Wunderground v.1.15,2013-11-11 15:50:00,
2013-11-11 09:55:00,64.7,53.5,30.26,East,98,3.0,4.0,67,0.00,,,0.00,Wunderground v.1.15,2013-11-11 15:55:00,
2013-11-11 10:00:00,65.1,54.3,30.26,ENE,63,3.0,4.0,68,0.00,,,0.00,Wunderground v.1.15,2013-11-11 16:00:00,
2013-11-11 10:05:00,65.2,54.4,30.25,SSE,162,3.0,4.0,68,0.00,,,0.00,Wunderground v.1.15,2013-11-11 16:05:00,
2013-11-11 10:10:00,65.4,53.7,30.25,NE,55,3.0,3.0,66,0.00,,,0.00,Wunderground v.1.15,2013-11-11 16:10:00,
2013-11-11 10:15:00,66.0,54.7,30.25,NE,42,3.0,4.0,67,0.00,,,0.00,Wunderground v.1.15,2013-11-11 16:15:00,
2013-11-11 10:20:00,66.3,54.6,30.25,NE,51,3.0,3.0,66,0.00,,,0.00,Wunderground v.1.15,2013-11-11 16:20:00,
2013-11-11 10:25:00,66.8,54.7,30.25,ESE,112,3.0,4.0,65,0.00,,,0.00,Wunderground v.1.15,2013-11-11 16:25:00,
2013-11-11 10:30:00,67.7,54.6,30.25,ESE,108,2.0,4.0,63,0.00,,,0.00,Wunderground v.1.15,2013-11-11 16:30:00,
2013-11-11 10:40:00,68.1,55.0,30.25,East,84,2.0,4.0,63,0.00,,,0.00,Wunderground v.1.15,2013-11-11 16:40:00,
2013-11-11 10:45:00,68.4,54.4,30.25,ENE,75,3.0,4.0,61,0.00,,,0.00,Wunderground v.1.15,2013-11-11 16:45:00,
2013-11-11 10:50:00,69.1,55.1,30.25,NE,34,3.0,3.0,61,0.00,,,0.00,Wunderground v.1.15,2013-11-11 16:50:00,
2013-11-11 10:55:00,69.6,54.6,30.24,East,96,2.0,4.0,59,0.00,,,0.00,Wunderground v.1.15,2013-11-11 16:55:00,
2013-11-11 11:00:00,70.3,54.3,30.24,SE,136,2.0,4.0,57,0.00,,,0.00,Wunderground v.1.15,2013-11-11 17:00:00,
2013-11-11 11:10:00,71.1,54.1,30.24,SE,145,2.0,4.0,55,0.00,,,0.00,Wunderground v.1.15,2013-11-11 17:10:00,
2013-11-11 11:15:00,71.4,53.9,30.24,South,185,2.0,4.0,54,0.00,,,0.00,Wunderground v.1.15,2013-11-11 17:15:00,
2013-11-11 11:20:00,72.0,54.9,30.24,SE,134,2.0,4.0,55,0.00,,,0.00,Wunderground v.1.15,2013-11-11 17:20:00,
2013-11-11 11:25:00,71.8,53.7,30.23,East,90,2.0,4.0,53,0.00,,,0.00,Wunderground v.1.15,2013-11-11 17:25:00,
2013-11-11 11:30:00,72.3,54.2,30.23,NE,53,2.0,4.0,53,0.00,,,0.00,Wunderground v.1.15,2013-11-11 17:30:00,
2013-11-11 11:35:00,72.1,54.0,30.23,ESE,115,1.0,4.0,53,0.00,,,0.00,Wunderground v.1.15,2013-11-11 17:35:00,
2013-11-11 11:40:00,71.7,52.6,30.22,SE,127,2.0,2.0,51,0.00,,,0.00,Wunderground v.1.15,2013-11-11 17:40:00,
2013-11-11 11:50:00,72.1,53.0,30.22,SE,146,2.0,2.0,51,0.00,,,0.00,Wunderground v.1.15,2013-11-11 17:50:00,
2013-11-11 11:55:00,72.8,53.1,30.22,NNE,18,2.0,4.0,50,0.00,,,0.00,Wunderground v.1.15,2013-11-11 17:55:00,
2013-11-11 12:00:00,72.3,52.1,30.21,NE,45,2.0,2.0,49,0.00,,,0.00,Wunderground v.1.15,2013-11-11 18:00:00,
2013-11-11 12:15:00,73.2,54.0,30.20,NNW,342,1.0,4.0,51,0.00,,,0.00,Wunderground v.1.15,2013-11-11 18:15:00,
2013-11-11 12:25:00,72.8,51.4,30.20,NNE,20,3.0,4.0,47,0.00,,,0.00,Wunderground v.1.15,2013-11-11 18:25:00,
2013-11-11 12:30:00,72.6,52.9,30.19,East,84,3.0,4.0,50,0.00,,,0.00,Wunderground v.1.15,2013-11-11 18:30:00,
2013-11-11 12:35:00,72.4,52.7,30.19,NE,56,3.0,4.0,50,0.00,,,0.00,Wunderground v.1.15,2013-11-11 18:35:00,
2013-11-11 12:40:00,72.2,52.0,30.19,ENE,75,3.0,3.0,49,0.00,,,0.00,Wunderground v.1.15,2013-11-11 18:40:00,
2013-11-11 12:45:00,72.5,52.8,30.19,NE,46,2.0,4.0,50,0.00,,,0.00,Wunderground v.1.15,2013-11-11 18:45:00,
2013-11-11 12:50:00,72.8,53.6,30.19,NNW,344,1.0,4.0,51,0.00,,,0.00,Wunderground v.1.15,2013-11-11 18:50:00,
2013-11-11 13:00:00,72.7,53.0,30.18,East,91,3.0,4.0,50,0.00,,,0.00,Wunderground v.1.15,2013-11-11 19:00:00,
2013-11-11 13:05:00,72.7,53.0,30.18,NNE,26,3.0,4.0,50,0.00,,,0.00,Wunderground v.1.15,2013-11-11 19:05:00,
2013-11-11 13:10:00,72.6,52.9,30.18,East,84,3.0,3.0,50,0.00,,,0.00,Wunderground v.1.15,2013-11-11 19:10:00,
2013-11-11 13:15:00,72.7,52.4,30.17,ENE,72,2.0,4.0,49,0.00,,,0.00,Wunderground v.1.15,2013-11-11 19:15:00,
2013-11-11 13:20:00,73.0,53.3,30.17,NW,318,1.0,4.0,50,0.00,,,0.00,Wunderground v.1.15,2013-11-11 19:20:00,
2013-11-11 13:25:00,74.0,53.1,30.17,NE,42,1.0,6.0,48,0.00,,,0.00,Wunderground v.1.15,2013-11-11 19:25:00,
2013-11-11 13:30:00,73.7,53.3,30.17,East,82,3.0,4.0,49,0.00,,,0.00,Wunderground v.1.15,2013-11-11 19:30:00,
2013-11-11 13:35:00,73.4,52.5,30.16,South,171,4.0,4.0,48,0.00,,,0.00,Wunderground v.1.15,2013-11-11 19:35:00,
2013-11-11 13:40:00,73.2,51.8,30.16,SE,140,3.0,3.0,47,0.00,,,0.00,Wunderground v.1.15,2013-11-11 19:40:00,
2013-11-11 13:45:00,73.3,52.4,30.16,ENE,73,2.0,4.0,48,0.00,,,0.00,Wunderground v.1.15,2013-11-11 19:45:00,
2013-11-11 13:50:00,73.6,53.3,30.16,East,82,2.0,4.0,49,0.00,,,0.00,Wunderground v.1.15,2013-11-11 19:50:00,
2013-11-11 14:00:00,73.8,52.9,30.16,ESE,122,3.0,3.0,48,0.00,,,0.00,Wunderground v.1.15,2013-11-11 20:00:00,
2013-11-11 14:05:00,74.0,51.9,30.16,ENE,65,3.0,4.0,46,0.00,,,0.00,Wunderground v.1.15,2013-11-11 20:05:00,
2013-11-11 14:10:00,73.7,52.2,30.16,SE,127,3.0,3.0,47,0.00,,,0.00,Wunderground v.1.15,2013-11-11 20:10:00,
2013-11-11 14:15:00,73.9,53.0,30.16,NNE,23,2.0,4.0,48,0.00,,,0.00,Wunderground v.1.15,2013-11-11 20:15:00,
2013-11-11 14:20:00,73.8,51.7,30.16,ENE,58,2.0,2.0,46,0.00,,,0.00,Wunderground v.1.15,2013-11-11 20:20:00,
2013-11-11 14:30:00,74.0,51.3,30.16,East,94,1.0,4.0,45,0.00,,,0.00,Wunderground v.1.15,2013-11-11 20:30:00,
2013-11-11 14:35:00,74.2,50.9,30.16,NE,56,2.0,4.0,44,0.00,,,0.00,Wunderground v.1.15,2013-11-11 20:35:00,
2013-11-11 14:40:00,74.0,51.3,30.16,ENE,77,2.0,4.0,45,0.00,,,0.00,Wunderground v.1.15,2013-11-11 20:40:00,
2013-11-11 14:45:00,74.0,52.5,30.15,NNW,333,2.0,4.0,47,0.00,,,0.00,Wunderground v.1.15,2013-11-11 20:45:00,
2013-11-11 14:50:00,74.2,52.7,30.15,NE,49,1.0,4.0,47,0.00,,,0.00,Wunderground v.1.15,2013-11-11 20:50:00,
2013-11-11 14:55:00,74.1,50.8,30.15,ENE,64,2.0,5.0,44,0.00,,,0.00,Wunderground v.1.15,2013-11-11 20:55:00,
2013-11-11 15:05:00,74.0,51.9,30.15,NE,40,3.0,4.0,46,0.00,,,0.00,Wunderground v.1.15,2013-11-11 21:05:00,
2013-11-11 15:10:00,74.2,52.1,30.15,NNE,23,2.0,4.0,46,0.00,,,0.00,Wunderground v.1.15,2013-11-11 21:10:00,
2013-11-11 15:15:00,74.0,51.9,30.15,East,86,3.0,4.0,46,0.00,,,0.00,Wunderground v.1.15,2013-11-11 21:15:00,
2013-11-11 15:20:00,74.0,52.5,30.15,East,85,3.0,3.0,47,0.00,,,0.00,Wunderground v.1.15,2013-11-11 21:20:00,
2013-11-11 15:25:00,74.0,51.9,30.15,East,86,2.0,4.0,46,0.00,,,0.00,Wunderground v.1.15,2013-11-11 21:25:00,
2013-11-11 15:35:00,73.5,52.0,30.15,ENE,65,2.0,4.0,47,0.00,,,0.00,Wunderground v.1.15,2013-11-11 21:35:00,
2013-11-11 15:40:00,73.6,52.7,30.15,North,358,2.0,2.0,48,0.00,,,0.00,Wunderground v.1.15,2013-11-11 21:40:00,
2013-11-11 15:45:00,73.6,52.7,30.15,East,101,1.0,4.0,48,0.00,,,0.00,Wunderground v.1.15,2013-11-11 21:45:00,
2013-11-11 15:50:00,73.3,53.0,30.15,ENE,63,1.0,4.0,49,0.00,,,0.00,Wunderground v.1.15,2013-11-11 21:50:00,
2013-11-11 15:55:00,72.9,53.2,30.15,NE,41,2.0,4.0,50,0.00,,,0.00,Wunderground v.1.15,2013-11-11 21:55:00,
2013-11-11 16:00:00,72.9,53.2,30.15,NE,47,2.0,2.0,50,0.00,,,0.00,Wunderground v.1.15,2013-11-11 22:00:00,
2013-11-11 16:10:00,72.6,54.0,30.15,ENE,63,3.0,3.0,52,0.00,,,0.00,Wunderground v.1.15,2013-11-11 22:10:00,
2013-11-11 16:15:00,72.5,54.4,30.15,NE,34,2.0,4.0,53,0.00,,,0.00,Wunderground v.1.15,2013-11-11 22:15:00,
2013-11-11 16:20:00,72.5,53.9,30.15,NE,48,1.0,4.0,52,0.00,,,0.00,Wunderground v.1.15,2013-11-11 22:20:00,
2013-11-11 16:25:00,72.4,54.3,30.15,NE,55,1.0,4.0,53,0.00,,,0.00,Wunderground v.1.15,2013-11-11 22:25:00,
2013-11-11 16:30:00,72.2,53.6,30.15,ENE,63,1.0,4.0,52,0.00,,,0.00,Wunderground v.1.15,2013-11-11 22:30:00,
2013-11-11 16:35:00,71.9,53.8,30.15,ENE,60,1.0,4.0,53,0.00,,,0.00,Wunderground v.1.15,2013-11-11 22:35:00,
2013-11-11 16:45:00,71.4,53.9,30.15,ENE,63,1.0,4.0,54,0.00,,,0.00,Wunderground v.1.15,2013-11-11 22:45:00,
2013-11-11 16:50:00,71.1,54.1,30.15,NE,34,1.0,4.0,55,0.00,,,0.00,Wunderground v.1.15,2013-11-11 22:50:00,
2013-11-11 16:55:00,70.7,53.7,30.15,NNE,25,1.0,4.0,55,0.00,,,0.00,Wunderground v.1.15,2013-11-11 22:55:00,
2013-11-11 17:00:00,70.2,54.7,30.15,NNE,15,1.0,1.0,58,0.00,,,0.00,Wunderground v.1.15,2013-11-11 23:00:00,
2013-11-11 17:05:00,69.5,55.0,30.15,NNE,31,0.0,4.0,60,0.00,,,0.00,Wunderground v.1.15,2013-11-11 23:05:00,
2013-11-11 17:10:00,68.9,54.0,30.15,NNE,27,1.0,4.0,59,0.00,,,0.00,Wunderground v.1.15,2013-11-11 23:10:00,
2013-11-11 17:15:00,68.6,54.2,30.15,NNE,20,1.0,4.0,60,0.00,,,0.00,Wunderground v.1.15,2013-11-11 23:15:00,
2013-11-11 17:20:00,68.3,54.3,30.15,NNE,19,1.0,4.0,61,0.00,,,0.00,Wunderground v.1.15,2013-11-11 23:20:00,
2013-11-11 17:25:00,67.9,54.0,30.15,NNE,17,1.0,4.0,61,0.00,,,0.00,Wunderground v.1.15,2013-11-11 23:25:00,
2013-11-11 17:30:00,67.5,54.0,30.15,NNE,17,1.0,4.0,62,0.00,,,0.00,Wunderground v.1.15,2013-11-11 23:30:00,
2013-11-11 17:35:00,67.2,54.2,30.15,NNE,17,1.0,4.0,63,0.00,,,0.00,Wunderground v.1.15,2013-11-11 23:35:00,
2013-11-11 17:45:00,66.5,54.4,30.16,NNE,17,1.0,4.0,65,0.00,,,0.00,Wunderground v.1.15,2013-11-11 23:45:00,
2013-11-11 17:50:00,66.1,54.0,30.16,NNE,17,0.0,4.0,65,0.00,,,0.00,Wunderground v.1.15,2013-11-11 23:50:00,
2013-11-11 17:55:00,65.8,57.7,30.16,NNE,17,0.0,4.0,75,0.00,,,0.00,Wunderground v.1.15,2013-11-11 23:55:00,
2013-11-11 18:05:00,63.5,56.2,30.16,NNE,17,0.0,4.0,77,0.00,,,0.00,Wunderground v.1.15,2013-11-12 00:05:00,
2013-11-11 18:10:00,62.8,54.8,30.16,NNE,17,0.0,4.0,75,0.00,,,0.00,Wunderground v.1.15,2013-11-12 00:10:00,
2013-11-11 18:20:00,62.3,56.4,30.17,NNE,17,0.0,4.0,81,0.00,,,0.00,Wunderground v.1.15,2013-11-12 00:20:00,
2013-11-11 18:25:00,61.9,55.3,30.17,NNE,17,0.0,4.0,79,0.00,,,0.00,Wunderground v.1.15,2013-11-12 00:25:00,
2013-11-11 18:30:00,62.0,55.8,30.17,NNE,17,0.0,4.0,80,0.00,,,0.00,Wunderground v.1.15,2013-11-12 00:30:00,
2013-11-11 18:35:00,62.0,55.8,30.17,NNE,17,0.0,4.0,80,0.00,,,0.00,Wunderground v.1.15,2013-11-12 00:35:00,
2013-11-11 18:40:00,61.8,57.2,30.17,NNE,17,0.0,4.0,85,0.00,,,0.00,Wunderground v.1.15,2013-11-12 00:40:00,
2013-11-11 18:50:00,60.0,56.1,30.18,NNE,17,0.0,4.0,87,0.00,,,0.00,Wunderground v.1.15,2013-11-12 00:50:00,
2013-11-11 18:55:00,59.5,55.6,30.18,NNE,17,0.0,4.0,87,0.00,,,0.00,Wunderground v.1.15,2013-11-12 00:55:00,
2013-11-11 19:00:00,59.1,55.5,30.18,NNE,17,0.0,4.0,88,0.00,,,0.00,Wunderground v.1.15,2013-11-12 01:00:00,
2013-11-11 19:05:00,58.9,55.4,30.18,NNE,16,0.0,4.0,88,0.00,,,0.00,Wunderground v.1.15,2013-11-12 01:05:00,
2013-11-11 19:10:00,58.8,54.6,30.18,NNE,16,0.0,4.0,86,0.00,,,0.00,Wunderground v.1.15,2013-11-12 01:10:00,
2013-11-11 19:15:00,59.0,54.8,30.18,NNE,16,0.0,4.0,86,0.00,,,0.00,Wunderground v.1.15,2013-11-12 01:15:00,
2013-11-11 19:20:00,58.9,54.7,30.18,NNE,17,0.0,4.0,86,0.00,,,0.00,Wunderground v.1.15,2013-11-12 01:20:00,
2013-11-11 19:25:00,58.8,55.3,30.18,East,84,0.0,4.0,88,0.00,,,0.00,Wunderground v.1.15,2013-11-12 01:25:00,
2013-11-11 19:30:00,58.5,55.3,30.18,East,84,0.0,4.0,89,0.00,,,0.00,Wunderground v.1.15,2013-11-12 01:30:00,
2013-11-11 19:35:00,58.1,55.5,30.18,East,84,0.0,4.0,91,0.00,,,0.00,Wunderground v.1.15,2013-11-12 01:35:00,
2013-11-11 19:40:00,57.7,55.4,30.18,East,84,0.0,4.0,92,0.00,,,0.00,Wunderground v.1.15,2013-11-12 01:40:00,
2013-11-11 19:45:00,57.4,55.1,30.19,East,84,0.0,4.0,92,0.00,,,0.00,Wunderground v.1.15,2013-11-12 01:45:00,
2013-11-11 19:55:00,57.5,55.5,30.19,East,84,0.0,4.0,93,0.00,,,0.00,Wunderground v.1.15,2013-11-12 01:55:00,
2013-11-11 20:00:00,57.4,55.4,30.19,East,84,0.0,4.0,93,0.00,,,0.00,Wunderground v.1.15,2013-11-12 02:00:00,
2013-11-11 20:05:00,57.2,55.2,30.19,East,84,0.0,4.0,93,0.00,,,0.00,Wunderground v.1.15,2013-11-12 02:05:00,
2013-11-11 20:10:00,57.0,55.3,30.19,East,84,0.0,4.0,94,0.00,,,0.00,Wunderground v.1.15,2013-11-12 02:10:00,
2013-11-11 20:15:00,56.7,55.0,30.20,East,84,0.0,4.0,94,0.00,,,0.00,Wunderground v.1.15,2013-11-12 02:15:00,
2013-11-11 20:25:00,56.3,54.6,30.20,East,84,0.0,4.0,94,0.00,,,0.00,Wunderground v.1.15,2013-11-12 02:25:00,
2013-11-11 20:30:00,56.1,54.4,30.20,East,84,0.0,4.0,94,0.00,,,0.00,Wunderground v.1.15,2013-11-12 02:30:00,
2013-11-11 20:35:00,56.3,54.9,30.20,East,84,0.0,4.0,95,0.00,,,0.00,Wunderground v.1.15,2013-11-12 02:35:00,
2013-11-11 20:40:00,56.6,54.6,30.20,East,83,0.0,4.0,93,0.00,,,0.00,Wunderground v.1.15,2013-11-12 02:40:00,
2013-11-11 20:45:00,56.8,54.5,30.20,East,83,0.0,4.0,92,0.00,,,0.00,Wunderground v.1.15,2013-11-12 02:45:00,
2013-11-11 20:50:00,56.8,54.8,30.20,East,84,0.0,4.0,93,0.00,,,0.00,Wunderground v.1.15,2013-11-12 02:50:00,
2013-11-11 21:00:00,56.0,54.3,30.20,East,84,0.0,4.0,94,0.00,,,0.00,Wunderground v.1.15,2013-11-12 03:00:00,
2013-11-11 21:10:00,55.4,54.0,30.20,East,82,0.0,4.0,95,0.00,,,0.00,Wunderground v.1.15,2013-11-12 03:10:00,
2013-11-11 21:15:00,55.4,54.0,30.20,East,82,0.0,4.0,95,0.00,,,0.00,Wunderground v.1.15,2013-11-12 03:15:00,
2013-11-11 21:20:00,55.4,53.7,30.20,NNE,21,0.0,4.0,94,0.00,,,0.00,Wunderground v.1.15,2013-11-12 03:20:00,
2013-11-11 21:25:00,55.3,53.6,30.20,North,3,1.0,4.0,94,0.00,,,0.00,Wunderground v.1.15,2013-11-12 03:25:00,
2013-11-11 21:30:00,55.2,53.2,30.20,North,3,1.0,1.0,93,0.00,,,0.00,Wunderground v.1.15,2013-11-12 03:30:00,
2013-11-11 21:35:00,55.2,53.2,30.21,North,3,0.0,4.0,93,0.00,,,0.00,Wunderground v.1.15,2013-11-12 03:35:00,
2013-11-11 21:40:00,55.2,53.2,30.21,North,3,0.0,4.0,93,0.00,,,0.00,Wunderground v.1.15,2013-11-12 03:40:00,
2013-11-11 21:45:00,55.0,53.0,30.21,North,3,0.0,4.0,93,0.00,,,0.00,Wunderground v.1.15,2013-11-12 03:45:00,
2013-11-11 21:50:00,54.9,53.2,30.21,North,3,0.0,4.0,94,0.00,,,0.00,Wunderground v.1.15,2013-11-12 03:50:00,
2013-11-11 21:55:00,54.8,53.1,30.21,North,3,0.0,4.0,94,0.00,,,0.00,Wunderground v.1.15,2013-11-12 03:55:00,
2013-11-11 22:05:00,54.9,52.9,30.21,North,3,0.0,4.0,93,0.00,,,0.00,Wunderground v.1.15,2013-11-12 04:05:00,
2013-11-11 22:10:00,54.9,52.9,30.21,North,359,0.0,4.0,93,0.00,,,0.00,Wunderground v.1.15,2013-11-12 04:10:00,
2013-11-11 22:15:00,54.5,52.5,30.21,North,359,0.0,4.0,93,0.00,,,0.00,Wunderground v.1.15,2013-11-12 04:15:00,
2013-11-11 22:20:00,54.4,52.4,30.21,North,359,0.0,4.0,93,0.00,,,0.00,Wunderground v.1.15,2013-11-12 04:20:00,
2013-11-11 22:25:00,54.3,52.3,30.21,North,359,0.0,4.0,93,0.00,,,0.00,Wunderground v.1.15,2013-11-12 04:25:00,
2013-11-11 22:35:00,54.3,52.3,30.21,North,359,0.0,4.0,93,0.00,,,0.00,Wunderground v.1.15,2013-11-12 04:35:00,
2013-11-11 22:40:00,54.2,52.2,30.21,North,359,0.0,4.0,93,0.00,,,0.00,Wunderground v.1.15,2013-11-12 04:40:00,
2013-11-11 22:45:00,54.1,51.8,30.21,North,359,0.0,4.0,92,0.00,,,0.00,Wunderground v.1.15,2013-11-12 04:45:00,
2013-11-11 22:50:00,54.0,52.0,30.21,North,359,0.0,4.0,93,0.00,,,0.00,Wunderground v.1.15,2013-11-12 04:50:00,
2013-11-11 22:55:00,53.9,51.9,30.21,North,359,0.0,4.0,93,0.00,,,0.00,Wunderground v.1.15,2013-11-12 04:55:00,
2013-11-11 23:00:00,53.7,52.0,30.21,North,359,0.0,4.0,94,0.00,,,0.00,Wunderground v.1.15,2013-11-12 05:00:00,
2013-11-11 23:05:00,53.7,52.0,30.21,North,359,0.0,4.0,94,0.00,,,0.00,Wunderground v.1.15,2013-11-12 05:05:00,
2013-11-11 23:10:00,53.4,51.7,30.21,North,359,0.0,4.0,94,0.00,,,0.00,Wunderground v.1.15,2013-11-12 05:10:00,
2013-11-11 23:15:00,53.5,52.1,30.21,North,359,0.0,4.0,95,0.00,,,0.00,Wunderground v.1.15,2013-11-12 05:15:00,
2013-11-11 23:20:00,53.4,51.7,30.21,North,359,0.0,4.0,94,0.00,,,0.00,Wunderground v.1.15,2013-11-12 05:20:00,
2013-11-11 23:25:00,53.3,51.6,30.21,North,359,0.0,4.0,94,0.00,,,0.00,Wunderground v.1.15,2013-11-12 05:25:00,
2013-11-11 23:30:00,53.2,51.5,30.21,North,359,0.0,4.0,94,0.00,,,0.00,Wunderground v.1.15,2013-11-12 05:30:00,
2013-11-11 23:40:00,53.0,51.6,30.21,North,359,0.0,4.0,95,0.00,,,0.00,Wunderground v.1.15,2013-11-12 05:40:00,
2013-11-11 23:45:00,53.0,51.6,30.21,North,354,0.0,4.0,95,0.00,,,0.00,Wunderground v.1.15,2013-11-12 05:45:00,
2013-11-11 23:50:00,52.9,51.2,30.21,NNW,335,1.0,1.0,94,0.00,,,0.00,Wunderground v.1.15,2013-11-12 05:50:00,
2013-11-11 23:55:00,53.0,51.3,30.21,NNW,335,0.0,4.0,94,0.00,,,0.00,Wunderground v.1.15,2013-11-12 05:55:00,